createdAt,value
2019-03-05T00:00:19.255Z,16.00
2019-03-05T00:01:19.233Z,16.00
2019-03-05T00:02:19.235Z,16.00
2019-03-05T00:03:19.218Z,16.00
2019-03-05T00:04:19.502Z,16.00
2019-03-05T00:05:19.581Z,16.00
2019-03-05T00:06:19.178Z,16.00
2019-03-05T00:07:19.201Z,16.00
2019-03-05T00:08:19.156Z,16.00
2019-03-05T00:09:19.151Z,16.00
2019-03-05T00:10:19.140Z,16.00
2019-03-05T00:11:19.473Z,16.00
2019-03-05T00:12:19.123Z,16.00
2019-03-05T00:13:19.143Z,16.00
2019-03-05T00:14:19.096Z,16.00
2019-03-05T00:15:19.082Z,16.00
2019-03-05T00:16:19.070Z,16.00
2019-03-05T00:17:19.126Z,16.00
2019-03-05T00:18:19.340Z,16.00
2019-03-05T00:19:19.039Z,16.00
2019-03-05T00:20:19.047Z,16.00
2019-03-05T00:21:19.042Z,16.00
2019-03-05T00:22:19.009Z,16.00
2019-03-05T00:23:19.063Z,16.00
2019-03-05T00:24:18.998Z,16.00
2019-03-05T00:25:19.285Z,16.00
2019-03-05T00:26:18.966Z,16.00
2019-03-05T00:27:18.970Z,16.00
2019-03-05T00:28:18.947Z,16.00
2019-03-05T00:29:18.987Z,16.00
2019-03-05T00:30:18.923Z,16.00
2019-03-05T00:31:18.920Z,16.00
2019-03-05T00:32:19.185Z,16.00
2019-03-05T00:33:18.891Z,16.00
2019-03-05T00:34:18.884Z,16.00
2019-03-05T00:35:18.953Z,16.00
2019-03-05T00:36:18.859Z,16.00
2019-03-05T00:37:18.860Z,16.00
2019-03-05T00:38:18.840Z,16.00
2019-03-05T00:39:19.126Z,16.00
2019-03-05T00:40:18.818Z,16.00
2019-03-05T00:41:18.853Z,16.00
2019-03-05T00:42:18.803Z,16.00
2019-03-05T00:43:18.795Z,16.00
2019-03-05T00:44:18.775Z,16.00
2019-03-05T00:45:18.773Z,16.00
2019-03-05T00:46:19.043Z,16.00
2019-03-05T00:47:18.820Z,16.00
2019-03-05T00:48:18.735Z,16.00
2019-03-05T00:49:18.722Z,16.00
2019-03-05T00:50:18.716Z,16.00
2019-03-05T00:51:25.006Z,16.00
2019-03-05T00:52:19.768Z,16.00
2019-03-05T00:53:18.992Z,16.00
2019-03-05T00:54:18.671Z,16.00
2019-03-05T00:55:18.661Z,16.00
2019-03-05T00:56:18.648Z,16.00
2019-03-05T00:57:18.642Z,16.00
2019-03-05T00:58:18.678Z,16.00
2019-03-05T00:59:18.616Z,16.00
2019-03-05T01:00:18.907Z,16.00
2019-03-05T01:01:18.595Z,16.00
2019-03-05T01:02:18.586Z,16.00
2019-03-05T01:03:18.582Z,16.00
2019-03-05T01:04:18.615Z,16.00
2019-03-05T01:05:18.553Z,16.00
2019-03-05T01:06:18.547Z,16.00
2019-03-05T01:07:18.830Z,16.00
2019-03-05T01:08:19.700Z,16.00
2019-03-05T01:09:18.517Z,16.00
2019-03-05T01:10:18.590Z,16.00
2019-03-05T01:11:18.494Z,16.00
2019-03-05T01:12:18.479Z,16.00
2019-03-05T01:13:18.479Z,16.00
2019-03-05T01:14:18.751Z,16.00
2019-03-05T01:15:18.447Z,16.00
2019-03-05T01:16:18.494Z,16.00
2019-03-05T01:17:18.426Z,16.00
2019-03-05T01:18:18.416Z,16.00
2019-03-05T01:19:18.403Z,16.00
2019-03-05T01:20:18.436Z,16.00
2019-03-05T01:21:18.669Z,16.00
2019-03-05T01:22:18.422Z,16.00
2019-03-05T01:23:18.361Z,16.00
2019-03-05T01:24:18.359Z,16.00
2019-03-05T01:25:18.355Z,16.00
2019-03-05T01:26:18.356Z,16.00
2019-03-05T01:27:18.320Z,16.00
2019-03-05T01:28:18.716Z,16.00
2019-03-05T01:29:18.297Z,16.00
2019-03-05T01:30:18.288Z,16.00
2019-03-05T01:31:18.287Z,16.00
2019-03-05T01:32:18.267Z,16.00
2019-03-05T01:33:18.257Z,16.00
2019-03-05T01:34:18.301Z,16.00
2019-03-05T01:35:18.527Z,16.00
2019-03-05T01:36:18.233Z,16.00
2019-03-05T01:37:18.216Z,16.00
2019-03-05T01:38:18.208Z,16.00
2019-03-05T01:39:18.191Z,16.00
2019-03-05T01:40:18.229Z,16.00
2019-03-05T01:41:18.170Z,16.00
2019-03-05T01:42:18.443Z,16.00
2019-03-05T01:43:18.151Z,16.00
2019-03-05T01:44:18.140Z,20.00
2019-03-05T01:45:18.142Z,20.00
2019-03-05T01:46:18.177Z,20.00
2019-03-05T01:47:18.110Z,20.00
2019-03-05T01:48:18.096Z,20.00
2019-03-05T01:49:18.370Z,20.00
2019-03-05T01:50:18.083Z,20.00
2019-03-05T01:51:18.065Z,20.00
2019-03-05T01:52:18.108Z,20.00
2019-03-05T01:53:18.044Z,20.00
2019-03-05T01:54:18.032Z,20.00
2019-03-05T01:55:18.026Z,20.00
2019-03-05T01:56:18.299Z,20.00
2019-03-05T01:57:18.004Z,20.00
2019-03-05T01:58:18.046Z,16.00
2019-03-05T01:59:17.984Z,20.00
2019-03-05T02:00:17.970Z,20.00
2019-03-05T02:01:17.959Z,20.00
2019-03-05T02:02:17.954Z,20.00
2019-03-05T02:03:18.252Z,20.00
2019-03-05T02:04:18.014Z,20.00
2019-03-05T02:05:17.919Z,20.00
2019-03-05T02:06:17.909Z,20.00
2019-03-05T02:07:17.900Z,20.00
2019-03-05T02:08:17.883Z,20.00
2019-03-05T02:09:17.874Z,20.00
2019-03-05T02:10:18.209Z,20.00
2019-03-05T02:11:17.856Z,20.00
2019-03-05T02:12:17.841Z,20.00
2019-03-05T02:13:17.840Z,20.00
2019-03-05T02:14:17.829Z,20.00
2019-03-05T02:15:17.813Z,20.00
2019-03-05T02:16:17.868Z,20.00
2019-03-05T02:17:18.090Z,20.00
2019-03-05T02:18:17.777Z,20.00
2019-03-05T02:19:17.785Z,20.00
2019-03-05T02:20:17.757Z,20.00
2019-03-05T02:21:17.771Z,20.00
2019-03-05T02:22:17.839Z,20.00
2019-03-05T02:23:17.727Z,20.00
2019-03-05T02:24:17.717Z,20.00
2019-03-05T02:25:17.716Z,20.00
2019-03-05T02:26:17.696Z,20.00
2019-03-05T02:27:17.694Z,20.00
2019-03-05T02:28:17.717Z,20.00
2019-03-05T02:29:17.667Z,20.00
2019-03-05T02:30:17.934Z,20.00
2019-03-05T02:31:17.658Z,20.00
2019-03-05T02:32:17.628Z,20.00
2019-03-05T02:33:17.626Z,20.00
2019-03-05T02:34:17.731Z,20.00
2019-03-05T02:35:17.597Z,20.00
2019-03-05T02:36:17.648Z,20.00
2019-03-05T02:37:17.583Z,20.00
2019-03-05T02:38:17.573Z,20.00
2019-03-05T02:39:17.563Z,20.00
2019-03-05T02:40:17.628Z,20.00
2019-03-05T02:41:17.534Z,20.00
2019-03-05T02:42:17.848Z,20.00
2019-03-05T02:43:17.520Z,20.00
2019-03-05T02:44:17.502Z,20.00
2019-03-05T02:45:17.490Z,20.00
2019-03-05T02:46:17.540Z,20.00
2019-03-05T02:47:17.479Z,20.00
2019-03-05T02:48:17.459Z,20.00
2019-03-05T02:49:17.461Z,20.00
2019-03-05T02:50:17.436Z,20.00
2019-03-05T02:51:17.434Z,20.00
2019-03-05T02:52:17.518Z,20.00
2019-03-05T02:53:17.407Z,20.00
2019-03-05T02:54:17.403Z,20.00
2019-03-05T02:55:17.393Z,20.00
2019-03-05T02:56:17.389Z,20.00
2019-03-05T02:57:17.362Z,20.00
2019-03-05T02:58:17.418Z,20.00
2019-03-05T02:59:17.341Z,20.00
2019-03-05T03:01:39.461Z,20.00
2019-03-05T03:02:39.135Z,20.00
2019-03-05T03:03:39.121Z,20.00
2019-03-05T03:04:39.128Z,20.00
2019-03-05T03:05:39.109Z,20.00
2019-03-05T03:06:39.091Z,20.00
2019-03-05T03:07:39.422Z,20.00
2019-03-05T03:08:39.068Z,20.00
2019-03-05T03:09:39.056Z,20.00
2019-03-05T03:10:39.045Z,20.00
2019-03-05T03:11:39.737Z,20.00
2019-03-05T03:12:39.026Z,20.00
2019-03-05T03:13:39.048Z,20.00
2019-03-05T03:14:39.304Z,20.00
2019-03-05T03:15:38.999Z,20.00
2019-03-05T03:16:38.999Z,20.00
2019-03-05T03:17:38.982Z,20.00
2019-03-05T03:18:38.960Z,20.00
2019-03-05T03:19:39.149Z,20.00
2019-03-05T03:20:38.959Z,20.00
2019-03-05T03:21:38.932Z,20.00
2019-03-05T03:22:38.923Z,20.00
2019-03-05T03:23:38.906Z,20.00
2019-03-05T03:24:39.714Z,20.00
2019-03-05T03:25:38.925Z,20.00
2019-03-05T03:26:38.874Z,20.00
2019-03-05T03:27:39.170Z,16.00
2019-03-05T03:28:38.856Z,16.00
2019-03-05T03:29:38.850Z,20.00
2019-03-05T03:30:38.874Z,20.00
2019-03-05T03:31:39.715Z,16.00
2019-03-05T03:32:38.818Z,20.00
2019-03-05T03:33:38.814Z,20.00
2019-03-05T03:34:39.149Z,20.00
2019-03-05T03:35:38.785Z,20.00
2019-03-05T03:36:38.774Z,20.00
2019-03-05T03:37:39.069Z,16.00
2019-03-05T03:38:38.758Z,16.00
2019-03-05T03:39:38.740Z,16.00
2019-03-05T03:40:38.726Z,16.00
2019-03-05T03:41:39.024Z,20.00
2019-03-05T03:42:38.707Z,20.00
2019-03-05T03:43:38.809Z,20.00
2019-03-05T03:44:38.691Z,20.00
2019-03-05T03:45:38.673Z,20.00
2019-03-05T03:46:38.667Z,16.00
2019-03-05T03:47:38.650Z,20.00
2019-03-05T03:48:38.958Z,20.00
2019-03-05T03:49:38.665Z,20.00
2019-03-05T03:50:38.626Z,20.00
2019-03-05T03:51:38.650Z,20.00
2019-03-05T03:52:38.596Z,20.00
2019-03-05T03:53:38.596Z,20.00
2019-03-05T03:54:38.577Z,20.00
2019-03-05T03:55:39.057Z,16.00
2019-03-05T03:56:38.556Z,16.00
2019-03-05T03:57:38.550Z,16.00
2019-03-05T03:58:38.533Z,16.00
2019-03-05T03:59:38.523Z,16.00
2019-03-05T04:00:38.514Z,16.00
2019-03-05T04:01:38.835Z,16.00
2019-03-05T04:02:38.492Z,16.00
2019-03-05T04:03:38.481Z,16.00
2019-03-05T04:04:38.469Z,16.00
2019-03-05T04:05:38.461Z,16.00
2019-03-05T04:06:38.464Z,16.00
2019-03-05T04:07:38.507Z,16.00
2019-03-05T04:08:38.447Z,16.00
2019-03-05T04:09:38.446Z,16.00
2019-03-05T04:10:38.481Z,16.00
2019-03-05T04:11:38.398Z,16.00
2019-03-05T04:12:38.390Z,16.00
2019-03-05T04:13:38.742Z,16.00
2019-03-05T04:14:38.404Z,16.00
2019-03-05T04:15:38.350Z,16.00
2019-03-05T04:16:38.366Z,16.00
2019-03-05T04:17:38.331Z,16.00
2019-03-05T04:18:38.325Z,16.00
2019-03-05T04:19:38.364Z,16.00
2019-03-05T04:20:38.304Z,16.00
2019-03-05T04:21:38.291Z,16.00
2019-03-05T04:22:38.276Z,16.00
2019-03-05T04:23:38.282Z,16.00
2019-03-05T04:24:38.260Z,16.00
2019-03-05T04:25:38.567Z,16.00
2019-03-05T04:26:38.233Z,16.00
2019-03-05T04:27:38.231Z,16.00
2019-03-05T04:28:38.212Z,16.00
2019-03-05T04:29:38.206Z,16.00
2019-03-05T04:30:38.191Z,16.00
2019-03-05T04:31:38.534Z,16.00
2019-03-05T04:32:38.216Z,16.00
2019-03-05T04:33:38.160Z,16.00
2019-03-05T04:34:38.148Z,16.00
2019-03-05T04:35:38.149Z,16.00
2019-03-05T04:36:38.128Z,16.00
2019-03-05T04:37:38.154Z,16.00
2019-03-05T04:38:38.391Z,16.00
2019-03-05T04:39:38.095Z,16.00
2019-03-05T04:40:38.083Z,16.00
2019-03-05T04:41:38.074Z,16.00
2019-03-05T04:42:38.064Z,16.00
2019-03-05T04:43:38.092Z,16.00
2019-03-05T04:44:38.042Z,16.00
2019-03-05T04:45:38.322Z,16.00
2019-03-05T04:46:38.019Z,16.00
2019-03-05T04:47:38.035Z,16.00
2019-03-05T04:48:37.999Z,16.00
2019-03-05T04:49:38.301Z,16.00
2019-03-05T04:50:37.980Z,16.00
2019-03-05T04:51:37.967Z,16.00
2019-03-05T04:52:39.355Z,16.00
2019-03-05T04:53:37.967Z,16.00
2019-03-05T04:54:37.958Z,16.00
2019-03-05T04:55:37.972Z,16.00
2019-03-05T04:56:37.915Z,16.00
2019-03-05T04:57:37.906Z,16.00
2019-03-05T04:58:37.916Z,16.00
2019-03-05T04:59:38.183Z,16.00
2019-03-05T05:00:37.906Z,16.00
2019-03-05T05:01:37.902Z,16.00
2019-03-05T05:02:37.853Z,16.00
2019-03-05T05:03:37.843Z,16.00
2019-03-05T05:04:37.849Z,16.00
2019-03-05T05:05:37.826Z,16.00
2019-03-05T05:06:38.238Z,16.00
2019-03-05T05:07:37.866Z,16.00
2019-03-05T05:08:37.818Z,16.00
2019-03-05T05:09:38.105Z,16.00
2019-03-05T05:10:37.772Z,16.00
2019-03-05T05:11:37.780Z,16.00
2019-03-05T05:12:37.754Z,16.00
2019-03-05T05:13:38.065Z,16.00
2019-03-05T05:14:37.731Z,16.00
2019-03-05T05:15:37.717Z,16.00
2019-03-05T05:16:37.713Z,16.00
2019-03-05T05:17:37.699Z,16.00
2019-03-05T05:18:37.697Z,16.00
2019-03-05T05:19:37.740Z,16.00
2019-03-05T05:20:37.964Z,16.00
2019-03-05T05:21:37.656Z,16.00
2019-03-05T05:22:37.657Z,16.00
2019-03-05T05:23:37.655Z,16.00
2019-03-05T05:24:37.762Z,20.00
2019-03-05T05:25:37.660Z,16.00
2019-03-05T05:26:37.602Z,16.00
2019-03-05T05:27:37.881Z,20.00
2019-03-05T05:28:37.582Z,16.00
2019-03-05T05:29:37.569Z,16.00
2019-03-05T05:30:37.562Z,20.00
2019-03-05T05:31:37.586Z,20.00
2019-03-05T05:32:37.551Z,20.00
2019-03-05T05:33:37.526Z,20.00
2019-03-05T05:34:37.830Z,20.00
2019-03-05T05:35:37.524Z,20.00
2019-03-05T05:36:37.507Z,20.00
2019-03-05T05:37:37.537Z,20.00
2019-03-05T05:38:37.476Z,16.00
2019-03-05T05:39:37.463Z,20.00
2019-03-05T05:40:37.453Z,20.00
2019-03-05T05:41:37.750Z,20.00
2019-03-05T05:42:37.432Z,28.00
2019-03-05T05:43:37.514Z,24.00
2019-03-05T05:44:37.429Z,24.00
2019-03-05T05:45:37.406Z,28.00
2019-03-05T05:46:37.423Z,28.00
2019-03-05T05:47:37.382Z,32.00
2019-03-05T05:48:37.660Z,28.00
2019-03-05T05:49:37.402Z,36.00
2019-03-05T05:50:37.348Z,36.00
2019-03-05T05:51:37.337Z,40.00
2019-03-05T05:52:37.327Z,44.00
2019-03-05T05:53:37.321Z,48.00
2019-03-05T05:54:37.305Z,48.00
2019-03-05T05:55:37.617Z,52.00
2019-03-05T05:56:37.284Z,56.00
2019-03-05T05:57:37.274Z,64.00
2019-03-05T05:58:37.268Z,76.00
2019-03-05T05:59:37.257Z,84.00
2019-03-05T06:00:37.242Z,92.00
2019-03-05T06:01:37.564Z,92.00
2019-03-05T06:02:37.224Z,108.00
2019-03-05T06:03:37.996Z,120.00
2019-03-05T06:04:37.208Z,132.00
2019-03-05T06:05:37.193Z,144.00
2019-03-05T06:06:37.216Z,152.00
2019-03-05T06:07:37.228Z,148.00
2019-03-05T06:08:37.160Z,144.00
2019-03-05T06:09:37.147Z,144.00
2019-03-05T06:10:37.149Z,132.00
2019-03-05T06:11:37.139Z,132.00
2019-03-05T06:12:37.118Z,140.00
2019-03-05T06:13:37.430Z,160.00
2019-03-05T06:14:37.097Z,192.00
2019-03-05T06:15:37.088Z,184.00
2019-03-05T06:16:37.079Z,200.00
2019-03-05T06:17:37.066Z,216.00
2019-03-05T06:18:37.065Z,232.00
2019-03-05T06:19:37.436Z,240.00
2019-03-05T06:20:37.036Z,252.00
2019-03-05T06:21:37.709Z,260.00
2019-03-05T06:22:37.021Z,292.00
2019-03-05T06:23:37.001Z,336.00
2019-03-05T06:24:37.008Z,348.00
2019-03-05T06:25:37.024Z,396.00
2019-03-05T06:26:37.372Z,408.00
2019-03-05T06:27:36.962Z,400.00
2019-03-05T06:28:36.960Z,384.00
2019-03-05T06:29:36.988Z,372.00
2019-03-05T06:30:36.948Z,412.00
2019-03-05T06:31:36.975Z,416.00
2019-03-05T06:32:36.920Z,388.00
2019-03-05T06:33:37.188Z,364.00
2019-03-05T06:34:36.894Z,292.00
2019-03-05T06:35:36.877Z,268.00
2019-03-05T06:36:36.864Z,240.00
2019-03-05T06:37:36.904Z,248.00
2019-03-05T06:38:36.858Z,232.00
2019-03-05T06:39:36.834Z,260.00
2019-03-05T06:40:37.306Z,276.00
2019-03-05T06:41:36.845Z,320.00
2019-03-05T06:42:36.803Z,336.00
2019-03-05T06:43:36.867Z,368.00
2019-03-05T06:44:36.784Z,404.00
2019-03-05T06:45:36.917Z,472.00
2019-03-05T06:46:36.761Z,500.00
2019-03-05T06:47:37.127Z,700.00
2019-03-05T06:48:36.824Z,772.00
2019-03-05T06:49:36.785Z,668.00
2019-03-05T06:50:36.719Z,580.00
2019-03-05T06:51:36.706Z,628.00
2019-03-05T06:52:36.693Z,488.00
2019-03-05T06:53:36.690Z,440.00
2019-03-05T06:54:36.998Z,588.00
2019-03-05T06:55:36.898Z,492.00
2019-03-05T06:56:36.657Z,436.00
2019-03-05T06:57:36.658Z,360.00
2019-03-05T06:58:36.641Z,436.00
2019-03-05T06:59:36.623Z,472.00
2019-03-05T07:00:36.616Z,524.00
2019-03-05T07:01:36.714Z,536.00
2019-03-05T07:02:36.594Z,724.00
2019-03-05T07:03:36.587Z,828.00
2019-03-05T07:04:36.582Z,772.00
2019-03-05T07:05:36.568Z,752.00
2019-03-05T07:06:36.597Z,712.00
2019-03-05T07:07:37.250Z,632.00
2019-03-05T07:08:36.562Z,828.00
2019-03-05T07:09:36.556Z,948.00
2019-03-05T07:10:36.525Z,848.00
2019-03-05T07:11:36.496Z,800.00
2019-03-05T07:12:36.530Z,884.00
2019-03-05T07:13:36.537Z,836.00
2019-03-05T07:14:36.754Z,728.00
2019-03-05T07:15:36.459Z,604.00
2019-03-05T07:16:36.438Z,504.00
2019-03-05T07:17:36.510Z,568.00
2019-03-05T07:18:36.426Z,568.00
2019-03-05T07:19:36.483Z,652.00
2019-03-05T07:20:36.402Z,572.00
2019-03-05T07:21:37.658Z,872.00
2019-03-05T07:22:36.391Z,1136.00
2019-03-05T07:23:36.372Z,1212.00
2019-03-05T07:24:36.365Z,1308.00
2019-03-05T07:25:36.449Z,1356.00
2019-03-05T07:26:36.337Z,1380.00
2019-03-05T07:27:36.331Z,1448.00
2019-03-05T07:28:36.626Z,1104.00
2019-03-05T07:29:36.328Z,1008.00
2019-03-05T07:30:36.295Z,836.00
2019-03-05T07:31:36.357Z,636.00
2019-03-05T07:32:36.268Z,456.00
2019-03-05T07:33:36.273Z,364.00
2019-03-05T07:34:36.249Z,276.00
2019-03-05T07:35:36.647Z,232.00
2019-03-05T07:36:36.250Z,252.00
2019-03-05T07:37:36.268Z,248.00
2019-03-05T07:38:36.221Z,232.00
2019-03-05T07:39:36.208Z,248.00
2019-03-05T07:40:36.185Z,324.00
2019-03-05T07:41:36.261Z,428.00
2019-03-05T07:42:36.455Z,720.00
2019-03-05T07:43:36.897Z,1208.00
2019-03-05T07:44:36.145Z,1396.00
2019-03-05T07:45:36.244Z,984.00
2019-03-05T07:46:36.123Z,884.00
2019-03-05T07:47:36.137Z,828.00
2019-03-05T07:48:36.111Z,720.00
2019-03-05T07:49:43.660Z,728.00
2019-03-05T07:50:37.744Z,752.00
2019-03-05T07:51:36.095Z,872.00
2019-03-05T07:52:36.063Z,900.00
2019-03-05T07:53:36.045Z,920.00
2019-03-05T07:54:36.051Z,748.00
2019-03-05T07:55:36.065Z,512.00
2019-03-05T07:56:42.146Z,516.00
2019-03-05T07:57:36.004Z,612.00
2019-03-05T07:58:35.998Z,816.00
2019-03-05T07:59:36.739Z,964.00
2019-03-05T08:00:35.980Z,1156.00
2019-03-05T08:01:36.014Z,808.00
2019-03-05T08:02:35.965Z,520.00
2019-03-05T08:03:36.410Z,556.00
2019-03-05T08:04:35.954Z,520.00
2019-03-05T08:05:35.959Z,472.00
2019-03-05T08:06:35.907Z,440.00
2019-03-05T08:07:36.794Z,420.00
2019-03-05T08:08:35.956Z,372.00
2019-03-05T08:09:35.880Z,344.00
2019-03-05T08:10:35.883Z,360.00
2019-03-05T08:11:35.873Z,500.00
2019-03-05T08:12:35.902Z,888.00
2019-03-05T08:13:35.877Z,1032.00
2019-03-05T08:14:35.821Z,984.00
2019-03-05T08:15:35.815Z,1036.00
2019-03-05T08:16:36.270Z,1028.00
2019-03-05T08:17:35.846Z,996.00
2019-03-05T08:18:35.783Z,836.00
2019-03-05T08:19:35.819Z,884.00
2019-03-05T08:20:35.782Z,712.00
2019-03-05T08:21:35.754Z,520.00
2019-03-05T08:22:35.739Z,452.00
2019-03-05T08:23:36.020Z,472.00
2019-03-05T08:24:35.731Z,432.00
2019-03-05T08:25:35.772Z,304.00
2019-03-05T08:26:36.649Z,412.00
2019-03-05T08:27:35.706Z,640.00
2019-03-05T08:28:35.685Z,972.00
2019-03-05T08:29:35.680Z,1272.00
2019-03-05T08:30:35.988Z,1420.00
2019-03-05T08:31:35.685Z,1568.00
2019-03-05T08:32:35.633Z,1692.00
2019-03-05T08:33:35.649Z,2012.00
2019-03-05T08:34:35.626Z,2220.00
2019-03-05T08:35:35.649Z,2504.00
2019-03-05T08:36:35.591Z,2664.00
2019-03-05T08:37:35.909Z,2896.00
2019-03-05T08:38:35.579Z,3264.00
2019-03-05T08:39:35.594Z,3520.00
2019-03-05T08:40:35.548Z,5080.00
2019-03-05T08:41:35.539Z,5624.00
2019-03-05T08:42:35.600Z,7268.00
2019-03-05T08:43:35.613Z,7932.00
2019-03-05T08:44:36.503Z,6724.00
2019-03-05T08:45:35.587Z,6040.00
2019-03-05T08:46:35.523Z,5364.00
2019-03-05T08:47:35.475Z,7696.00
2019-03-05T08:48:35.469Z,6340.00
2019-03-05T08:49:35.508Z,5652.00
2019-03-05T08:50:35.453Z,5232.00
2019-03-05T08:51:35.782Z,6880.00
2019-03-05T08:52:35.425Z,8108.00
2019-03-05T08:53:35.410Z,9932.00
2019-03-05T08:54:35.450Z,8972.00
2019-03-05T08:55:36.232Z,9044.00
2019-03-05T08:56:35.377Z,7532.00
2019-03-05T08:57:35.371Z,4960.00
2019-03-05T08:58:35.748Z,4484.00
2019-03-05T08:59:35.395Z,4748.00
2019-03-05T09:00:35.372Z,4892.00
2019-03-05T09:01:36.573Z,4604.00
2019-03-05T09:02:35.375Z,4504.00
2019-03-05T09:03:35.389Z,4920.00
2019-03-05T09:04:35.333Z,4756.00
2019-03-05T09:05:36.870Z,5172.00
2019-03-05T09:06:35.277Z,3808.00
2019-03-05T09:07:35.302Z,3732.00
2019-03-05T09:08:35.446Z,5048.00
2019-03-05T09:09:35.523Z,5072.00
2019-03-05T09:10:35.247Z,4368.00
2019-03-05T09:11:35.927Z,3156.00
2019-03-05T09:12:35.210Z,3772.00
2019-03-05T09:13:35.245Z,3720.00
2019-03-05T09:14:35.274Z,3596.00
2019-03-05T09:15:35.217Z,3212.00
2019-03-05T09:16:35.169Z,4056.00
2019-03-05T09:17:35.157Z,3964.00
2019-03-05T09:18:36.540Z,5200.00
2019-03-05T09:19:36.011Z,5736.00
2019-03-05T09:20:35.124Z,5672.00
2019-03-05T09:21:35.191Z,5452.00
2019-03-05T09:22:35.100Z,5220.00
2019-03-05T09:23:35.158Z,4040.00
2019-03-05T09:24:36.591Z,3052.00
2019-03-05T09:25:35.658Z,3736.00
2019-03-05T09:26:35.109Z,3256.00
2019-03-05T09:27:35.359Z,3472.00
2019-03-05T09:28:35.036Z,4984.00
2019-03-05T09:29:35.766Z,4332.00
2019-03-05T09:30:35.020Z,4096.00
2019-03-05T09:31:35.324Z,3568.00
2019-03-05T09:32:35.768Z,4096.00
2019-03-05T09:33:35.686Z,3836.00
2019-03-05T09:34:35.683Z,3240.00
2019-03-05T09:35:34.970Z,2324.00
2019-03-05T09:36:34.984Z,1848.00
2019-03-05T09:37:35.023Z,2072.00
2019-03-05T09:38:35.681Z,1976.00
2019-03-05T09:39:34.929Z,1932.00
2019-03-05T09:40:34.909Z,2016.00
2019-03-05T09:41:34.936Z,2064.00
2019-03-05T09:42:39.777Z,1956.00
2019-03-05T09:43:34.950Z,1564.00
2019-03-05T09:44:34.926Z,1100.00
2019-03-05T09:45:36.407Z,904.00
2019-03-05T09:46:34.936Z,956.00
2019-03-05T09:47:35.099Z,1256.00
2019-03-05T09:48:34.830Z,1340.00
2019-03-05T09:49:35.278Z,1360.00
2019-03-05T09:50:34.811Z,1432.00
2019-03-05T09:51:34.796Z,1800.00
2019-03-05T09:52:34.927Z,1632.00
2019-03-05T09:53:34.862Z,1252.00
2019-03-05T09:54:35.397Z,1260.00
2019-03-05T09:55:35.824Z,1148.00
2019-03-05T09:56:35.269Z,1028.00
2019-03-05T09:57:34.853Z,1040.00
2019-03-05T09:58:34.751Z,804.00
2019-03-05T09:59:34.710Z,920.00
2019-03-05T10:00:34.701Z,1308.00
2019-03-05T10:01:34.737Z,1396.00
2019-03-05T10:02:34.819Z,1188.00
2019-03-05T10:03:35.020Z,1412.00
2019-03-05T10:04:34.727Z,1776.00
2019-03-05T10:05:34.643Z,2220.00
2019-03-05T10:06:34.633Z,4224.00
2019-03-05T10:07:34.703Z,4384.00
2019-03-05T10:08:34.633Z,3396.00
2019-03-05T10:09:34.689Z,4304.00
2019-03-05T10:10:35.112Z,3576.00
2019-03-05T10:11:34.600Z,2852.00
2019-03-05T10:12:34.592Z,2392.00
2019-03-05T10:13:34.675Z,2028.00
2019-03-05T10:14:34.604Z,2876.00
2019-03-05T10:15:34.537Z,3820.00
2019-03-05T10:16:34.529Z,3928.00
2019-03-05T10:17:38.198Z,3484.00
2019-03-05T10:18:34.653Z,3112.00
2019-03-05T10:19:35.675Z,2812.00
2019-03-05T10:20:34.506Z,2772.00
2019-03-05T10:21:45.540Z,2884.00
2019-03-05T10:22:35.469Z,2664.00
2019-03-05T10:23:34.468Z,3376.00
2019-03-05T10:24:34.810Z,3744.00
2019-03-05T10:25:34.641Z,4356.00
2019-03-05T10:26:34.483Z,4912.00
2019-03-05T10:27:34.454Z,3372.00
2019-03-05T10:28:34.454Z,2364.00
2019-03-05T10:29:34.393Z,2484.00
2019-03-05T10:30:34.405Z,3612.00
2019-03-05T10:31:34.646Z,4620.00
2019-03-05T10:32:34.431Z,5900.00
2019-03-05T10:33:34.350Z,9608.00
2019-03-05T10:34:34.369Z,12140.00
2019-03-05T10:35:34.373Z,13656.00
2019-03-05T10:36:34.317Z,11228.00
2019-03-05T10:37:34.757Z,13640.00
2019-03-05T10:38:34.299Z,13168.00
2019-03-05T10:39:34.331Z,9384.00
2019-03-05T10:40:34.324Z,5892.00
2019-03-05T10:41:34.285Z,3332.00
2019-03-05T10:42:34.280Z,2168.00
2019-03-05T10:43:34.298Z,2064.00
2019-03-05T10:44:34.606Z,2672.00
2019-03-05T10:45:34.235Z,3672.00
2019-03-05T10:46:34.258Z,4556.00
2019-03-05T10:47:34.207Z,4684.00
2019-03-05T10:48:34.185Z,3640.00
2019-03-05T10:49:34.344Z,3516.00
2019-03-05T10:50:34.259Z,3856.00
2019-03-05T10:51:35.490Z,4560.00
2019-03-05T10:52:34.372Z,5268.00
2019-03-05T10:53:34.301Z,6760.00
2019-03-05T10:54:34.472Z,7076.00
2019-03-05T10:55:36.006Z,5860.00
2019-03-05T10:56:34.733Z,4992.00
2019-03-05T10:57:34.684Z,4728.00
2019-03-05T10:58:34.528Z,8644.00
2019-03-05T10:59:34.082Z,13180.00
2019-03-05T11:00:34.799Z,18976.00
2019-03-05T11:01:34.133Z,16432.00
2019-03-05T11:02:34.674Z,15284.00
2019-03-05T11:03:34.030Z,15228.00
2019-03-05T11:04:45.241Z,16048.00
2019-03-05T11:05:35.958Z,14780.00
2019-03-05T11:06:34.075Z,11964.00
2019-03-05T11:07:34.382Z,10076.00
2019-03-05T11:08:35.107Z,8480.00
2019-03-05T11:09:34.307Z,7532.00
2019-03-05T11:10:34.466Z,7772.00
2019-03-05T11:11:33.948Z,6976.00
2019-03-05T11:12:34.214Z,7084.00
2019-03-05T11:13:34.082Z,5900.00
2019-03-05T11:14:33.919Z,5868.00
2019-03-05T11:15:34.111Z,5376.00
2019-03-05T11:16:34.502Z,5280.00
2019-03-05T11:17:33.983Z,4440.00
2019-03-05T11:18:34.023Z,4580.00
2019-03-05T11:19:35.133Z,4860.00
2019-03-05T11:20:33.951Z,5064.00
2019-03-05T11:21:33.910Z,3976.00
2019-03-05T11:22:34.625Z,4324.00
2019-03-05T11:23:33.818Z,4712.00
2019-03-05T11:24:33.807Z,5060.00
2019-03-05T11:25:33.923Z,4196.00
2019-03-05T11:26:33.791Z,4332.00
2019-03-05T11:27:33.807Z,5156.00
2019-03-05T11:28:33.772Z,5824.00
2019-03-05T11:29:33.758Z,6280.00
2019-03-05T11:30:36.386Z,6028.00
2019-03-05T11:31:34.304Z,6284.00
2019-03-05T11:32:33.762Z,4872.00
2019-03-05T11:33:33.791Z,4504.00
2019-03-05T11:34:34.160Z,4680.00
2019-03-05T11:35:33.719Z,7100.00
2019-03-05T11:36:33.795Z,9432.00
2019-03-05T11:37:33.917Z,6596.00
2019-03-05T11:38:33.727Z,5928.00
2019-03-05T11:39:33.939Z,9008.00
2019-03-05T11:40:34.168Z,22880.00
2019-03-05T11:41:33.882Z,13272.00
2019-03-05T11:42:38.112Z,11496.00
2019-03-05T11:43:35.148Z,9964.00
2019-03-05T11:44:33.597Z,7756.00
2019-03-05T11:45:33.584Z,13388.00
2019-03-05T11:46:33.570Z,10744.00
2019-03-05T11:47:33.577Z,12460.00
2019-03-05T11:48:33.556Z,12940.00
2019-03-05T11:49:34.402Z,10480.00
2019-03-05T11:50:33.557Z,8636.00
2019-03-05T11:51:34.647Z,8552.00
2019-03-05T11:52:33.668Z,8296.00
2019-03-05T11:53:33.857Z,9128.00
2019-03-05T11:54:34.902Z,9948.00
2019-03-05T11:55:35.097Z,11832.00
2019-03-05T11:56:33.470Z,10976.00
2019-03-05T11:57:33.684Z,13568.00
2019-03-05T11:58:33.442Z,12588.00
2019-03-05T11:59:34.614Z,19200.00
2019-03-05T12:00:33.639Z,11336.00
2019-03-05T12:01:33.418Z,12836.00
2019-03-05T12:02:33.574Z,12352.00
2019-03-05T12:03:33.467Z,14088.00
2019-03-05T12:04:33.379Z,117600.00
2019-03-05T12:05:33.368Z,36992.00
2019-03-05T12:06:33.450Z,17088.00
2019-03-05T12:07:33.388Z,24544.00
2019-03-05T12:08:33.446Z,13180.00
2019-03-05T12:09:33.813Z,13584.00
2019-03-05T12:10:33.512Z,10104.00
2019-03-05T12:11:33.942Z,9116.00
2019-03-05T12:12:33.688Z,9020.00
2019-03-05T12:13:33.298Z,9856.00
2019-03-05T12:14:33.446Z,9692.00
2019-03-05T12:15:34.344Z,11500.00
2019-03-05T12:16:34.301Z,15180.00
2019-03-05T12:17:33.882Z,10148.00
2019-03-05T12:18:34.589Z,7580.00
2019-03-05T12:19:33.289Z,5112.00
2019-03-05T12:20:33.308Z,4176.00
2019-03-05T12:21:33.695Z,4552.00
2019-03-05T12:22:33.343Z,4836.00
2019-03-05T12:23:33.187Z,5380.00
2019-03-05T12:24:35.151Z,4896.00
2019-03-05T12:25:36.083Z,5360.00
2019-03-05T12:26:34.164Z,5320.00
2019-03-05T12:27:35.734Z,5188.00
2019-03-05T12:28:34.613Z,4792.00
2019-03-05T12:29:33.121Z,4676.00
2019-03-05T12:30:33.457Z,4564.00
2019-03-05T12:31:33.665Z,4384.00